sensor_id;sensor_type;location;lat;lon;timestamp;P1;durP1;ratioP1;P2;durP2;ratioP2
35257;SDS011;21385;50.878;8.050;2024-01-10T00:01:59;1.00;;;0.80;;
35257;SDS011;21385;50.878;8.050;2024-01-10T00:04:25;0.93;;;0.90;;
35257;SDS011;21385;50.878;8.050;2024-01-10T00:06:50;1.23;;;1.13;;
35257;SDS011;21385;50.878;8.050;2024-01-10T00:09:16;1.38;;;1.27;;
35257;SDS011;21385;50.878;8.050;2024-01-10T00:11:41;2.72;;;1.42;;
35257;SDS011;21385;50.878;8.050;2024-01-10T00:14:07;1.02;;;0.75;;
35257;SDS011;21385;50.878;8.050;2024-01-10T00:16:32;1.45;;;1.38;;
35257;SDS011;21385;50.878;8.050;2024-01-10T00:18:58;1.15;;;1.05;;
35257;SDS011;21385;50.878;8.050;2024-01-10T00:21:23;3.20;;;1.45;;
35257;SDS011;21385;50.878;8.050;2024-01-10T00:23:49;1.45;;;1.25;;
35257;SDS011;21385;50.878;8.050;2024-01-10T00:26:15;3.20;;;1.40;;
35257;SDS011;21385;50.878;8.050;2024-01-10T00:28:41;1.25;;;1.13;;
35257;SDS011;21385;50.878;8.050;2024-01-10T00:31:07;1.05;;;1.05;;
35257;SDS011;21385;50.878;8.050;2024-01-10T00:33:33;0.30;;;0.30;;
35257;SDS011;21385;50.878;8.050;2024-01-10T00:35:59;0.60;;;0.60;;
35257;SDS011;21385;50.878;8.050;2024-01-10T00:38:24;0.80;;;0.52;;
35257;SDS011;21385;50.878;8.050;2024-01-10T00:40:50;0.90;;;0.90;;
35257;SDS011;21385;50.878;8.050;2024-01-10T00:43:15;1.20;;;1.20;;
35257;SDS011;21385;50.878;8.050;2024-01-10T00:45:41;1.27;;;1.17;;
35257;SDS011;21385;50.878;8.050;2024-01-10T00:48:07;1.30;;;1.02;;
35257;SDS011;21385;50.878;8.050;2024-01-10T00:50:32;0.90;;;0.68;;
35257;SDS011;21385;50.878;8.050;2024-01-10T00:52:58;1.42;;;1.17;;
35257;SDS011;21385;50.878;8.050;2024-01-10T00:55:23;1.75;;;0.60;;
35257;SDS011;21385;50.878;8.050;2024-01-10T00:57:49;0.43;;;0.43;;
35257;SDS011;21385;50.878;8.050;2024-01-10T01:00:15;2.33;;;1.95;;
35257;SDS011;21385;50.878;8.050;2024-01-10T01:02:40;1.13;;;1.02;;
35257;SDS011;21385;50.878;8.050;2024-01-10T01:05:06;2.65;;;0.88;;
35257;SDS011;21385;50.878;8.050;2024-01-10T01:07:32;0.68;;;0.68;;
35257;SDS011;21385;50.878;8.050;2024-01-10T01:09:58;0.63;;;0.63;;
35257;SDS011;21385;50.878;8.050;2024-01-10T01:12:24;2.67;;;1.73;;
35257;SDS011;21385;50.878;8.050;2024-01-10T01:14:50;1.10;;;1.00;;
35257;SDS011;21385;50.878;8.050;2024-01-10T01:17:15;3.72;;;2.70;;
35257;SDS011;21385;50.878;8.050;2024-01-10T01:19:41;1.40;;;1.30;;
35257;SDS011;21385;50.878;8.050;2024-01-10T01:22:07;1.27;;;0.70;;
35257;SDS011;21385;50.878;8.050;2024-01-10T01:24:32;1.08;;;0.98;;
35257;SDS011;21385;50.878;8.050;2024-01-10T01:26:58;0.70;;;0.70;;
35257;SDS011;21385;50.878;8.050;2024-01-10T01:29:24;0.45;;;0.45;;
35257;SDS011;21385;50.878;8.050;2024-01-10T01:31:49;4.20;;;1.08;;
35257;SDS011;21385;50.878;8.050;2024-01-10T01:34:15;1.30;;;1.20;;
35257;SDS011;21385;50.878;8.050;2024-01-10T01:36:41;1.13;;;1.10;;
35257;SDS011;21385;50.878;8.050;2024-01-10T01:39:06;0.82;;;0.73;;
35257;SDS011;21385;50.878;8.050;2024-01-10T01:41:32;2.50;;;1.65;;
35257;SDS011;21385;50.878;8.050;2024-01-10T01:43:57;0.57;;;0.57;;
35257;SDS011;21385;50.878;8.050;2024-01-10T01:46:23;2.47;;;1.55;;
35257;SDS011;21385;50.878;8.050;2024-01-10T01:48:49;0.52;;;0.52;;
35257;SDS011;21385;50.878;8.050;2024-01-10T01:51:15;1.23;;;1.13;;
35257;SDS011;21385;50.878;8.050;2024-01-10T01:53:46;0.65;;;0.65;;
35257;SDS011;21385;50.878;8.050;2024-01-10T01:56:14;1.25;;;1.15;;
35257;SDS011;21385;50.878;8.050;2024-01-10T01:58:41;1.10;;;1.10;;
35257;SDS011;21385;50.878;8.050;2024-01-10T02:01:09;0.63;;;0.63;;
35257;SDS011;21385;50.878;8.050;2024-01-10T02:03:36;0.95;;;0.95;;
35257;SDS011;21385;50.878;8.050;2024-01-10T02:06:02;2.00;;;0.73;;
35257;SDS011;21385;50.878;8.050;2024-01-10T02:08:37;1.30;;;1.05;;
35257;SDS011;21385;50.878;8.050;2024-01-10T02:11:03;3.88;;;2.47;;
35257;SDS011;21385;50.878;8.050;2024-01-10T02:13:30;1.48;;;1.42;;
35257;SDS011;21385;50.878;8.050;2024-01-10T02:15:57;2.42;;;1.60;;
35257;SDS011;21385;50.878;8.050;2024-01-10T02:18:24;1.95;;;1.40;;
35257;SDS011;21385;50.878;8.050;2024-01-10T02:20:49;0.35;;;0.35;;
35257;SDS011;21385;50.878;8.050;2024-01-10T02:23:15;0.75;;;0.75;;
35257;SDS011;21385;50.878;8.050;2024-01-10T02:25:41;3.90;;;1.50;;
35257;SDS011;21385;50.878;8.050;2024-01-10T02:28:07;1.67;;;0.63;;
35257;SDS011;21385;50.878;8.050;2024-01-10T02:30:34;0.65;;;0.60;;
35257;SDS011;21385;50.878;8.050;2024-01-10T02:33:00;4.30;;;1.73;;
35257;SDS011;21385;50.878;8.050;2024-01-10T02:35:26;0.60;;;0.60;;
35257;SDS011;21385;50.878;8.050;2024-01-10T02:37:52;1.52;;;0.70;;
35257;SDS011;21385;50.878;8.050;2024-01-10T02:40:19;0.85;;;0.85;;
35257;SDS011;21385;50.878;8.050;2024-01-10T02:42:45;1.70;;;1.60;;
35257;SDS011;21385;50.878;8.050;2024-01-10T02:45:10;2.30;;;1.23;;
35257;SDS011;21385;50.878;8.050;2024-01-10T02:47:36;1.25;;;1.15;;
35257;SDS011;21385;50.878;8.050;2024-01-10T02:50:03;2.67;;;2.40;;
35257;SDS011;21385;50.878;8.050;2024-01-10T02:52:29;0.93;;;0.93;;
35257;SDS011;21385;50.878;8.050;2024-01-10T02:54:54;0.63;;;0.63;;
35257;SDS011;21385;50.878;8.050;2024-01-10T02:57:20;3.65;;;2.78;;
35257;SDS011;21385;50.878;8.050;2024-01-10T02:59:46;0.70;;;0.70;;
35257;SDS011;21385;50.878;8.050;2024-01-10T03:02:11;0.55;;;0.55;;
35257;SDS011;21385;50.878;8.050;2024-01-10T03:04:37;1.48;;;1.38;;
35257;SDS011;21385;50.878;8.050;2024-01-10T03:07:02;0.60;;;0.60;;
35257;SDS011;21385;50.878;8.050;2024-01-10T03:09:28;0.60;;;0.60;;
35257;SDS011;21385;50.878;8.050;2024-01-10T03:11:54;1.77;;;1.67;;
35257;SDS011;21385;50.878;8.050;2024-01-10T03:14:19;6.75;;;1.30;;
35257;SDS011;21385;50.878;8.050;2024-01-10T03:16:45;0.30;;;0.30;;
35257;SDS011;21385;50.878;8.050;2024-01-10T03:19:10;2.28;;;1.75;;
35257;SDS011;21385;50.878;8.050;2024-01-10T03:21:36;1.27;;;1.02;;
35257;SDS011;21385;50.878;8.050;2024-01-10T03:24:02;1.30;;;1.27;;
35257;SDS011;21385;50.878;8.050;2024-01-10T03:26:28;1.02;;;0.98;;
35257;SDS011;21385;50.878;8.050;2024-01-10T03:28:55;3.28;;;1.33;;
35257;SDS011;21385;50.878;8.050;2024-01-10T03:31:21;2.40;;;1.65;;
35257;SDS011;21385;50.878;8.050;2024-01-10T03:33:46;1.02;;;0.73;;
35257;SDS011;21385;50.878;8.050;2024-01-10T03:36:13;1.45;;;1.35;;
35257;SDS011;21385;50.878;8.050;2024-01-10T03:38:40;1.52;;;1.42;;
35257;SDS011;21385;50.878;8.050;2024-01-10T03:41:06;0.52;;;0.52;;
35257;SDS011;21385;50.878;8.050;2024-01-10T03:43:31;0.82;;;0.80;;
35257;SDS011;21385;50.878;8.050;2024-01-10T03:45:57;1.25;;;1.15;;
35257;SDS011;21385;50.878;8.050;2024-01-10T03:48:23;0.85;;;0.85;;
35257;SDS011;21385;50.878;8.050;2024-01-10T03:50:49;0.93;;;0.93;;
35257;SDS011;21385;50.878;8.050;2024-01-10T03:53:15;3.50;;;1.80;;
35257;SDS011;21385;50.878;8.050;2024-01-10T03:55:40;3.35;;;2.42;;
35257;SDS011;21385;50.878;8.050;2024-01-10T03:58:06;1.48;;;1.13;;
35257;SDS011;21385;50.878;8.050;2024-01-10T04:00:32;0.35;;;0.35;;
35257;SDS011;21385;50.878;8.050;2024-01-10T04:02:57;1.33;;;1.23;;
35257;SDS011;21385;50.878;8.050;2024-01-10T04:05:23;0.65;;;0.65;;
35257;SDS011;21385;50.878;8.050;2024-01-10T04:07:50;1.75;;;1.65;;
35257;SDS011;21385;50.878;8.050;2024-01-10T04:10:17;1.42;;;1.35;;
35257;SDS011;21385;50.878;8.050;2024-01-10T04:12:43;1.02;;;1.02;;
35257;SDS011;21385;50.878;8.050;2024-01-10T04:15:09;1.85;;;1.10;;
35257;SDS011;21385;50.878;8.050;2024-01-10T04:17:36;1.17;;;1.08;;
35257;SDS011;21385;50.878;8.050;2024-01-10T04:20:02;0.35;;;0.35;;
35257;SDS011;21385;50.878;8.050;2024-01-10T04:22:28;2.88;;;1.15;;
35257;SDS011;21385;50.878;8.050;2024-01-10T04:24:53;2.05;;;1.58;;
35257;SDS011;21385;50.878;8.050;2024-01-10T04:27:22;0.77;;;0.75;;
35257;SDS011;21385;50.878;8.050;2024-01-10T04:29:47;1.75;;;1.48;;
35257;SDS011;21385;50.878;8.050;2024-01-10T04:32:13;0.90;;;0.50;;
35257;SDS011;21385;50.878;8.050;2024-01-10T04:34:39;5.63;;;3.35;;
35257;SDS011;21385;50.878;8.050;2024-01-10T04:37:05;1.17;;;1.17;;
35257;SDS011;21385;50.878;8.050;2024-01-10T04:39:32;0.88;;;0.88;;
35257;SDS011;21385;50.878;8.050;2024-01-10T04:41:58;2.00;;;1.52;;
35257;SDS011;21385;50.878;8.050;2024-01-10T04:44:24;1.35;;;1.33;;
35257;SDS011;21385;50.878;8.050;2024-01-10T04:46:49;1.75;;;1.65;;
35257;SDS011;21385;50.878;8.050;2024-01-10T04:49:15;3.30;;;2.05;;
35257;SDS011;21385;50.878;8.050;2024-01-10T04:51:41;1.42;;;1.33;;
35257;SDS011;21385;50.878;8.050;2024-01-10T04:54:06;2.05;;;1.17;;
35257;SDS011;21385;50.878;8.050;2024-01-10T04:56:32;1.55;;;1.45;;
35257;SDS011;21385;50.878;8.050;2024-01-10T04:58:57;5.40;;;1.40;;
35257;SDS011;21385;50.878;8.050;2024-01-10T05:01:23;1.50;;;0.85;;
35257;SDS011;21385;50.878;8.050;2024-01-10T05:03:49;0.45;;;0.45;;
35257;SDS011;21385;50.878;8.050;2024-01-10T05:06:14;4.82;;;1.95;;
35257;SDS011;21385;50.878;8.050;2024-01-10T05:08:40;1.55;;;1.45;;
35257;SDS011;21385;50.878;8.050;2024-01-10T05:11:05;2.03;;;1.08;;
35257;SDS011;21385;50.878;8.050;2024-01-10T05:13:31;1.40;;;1.30;;
35257;SDS011;21385;50.878;8.050;2024-01-10T05:15:57;0.93;;;0.68;;
35257;SDS011;21385;50.878;8.050;2024-01-10T05:18:23;2.30;;;1.70;;
35257;SDS011;21385;50.878;8.050;2024-01-10T05:20:48;3.60;;;1.33;;
35257;SDS011;21385;50.878;8.050;2024-01-10T05:23:15;1.13;;;1.08;;
35257;SDS011;21385;50.878;8.050;2024-01-10T05:25:40;3.78;;;1.55;;
35257;SDS011;21385;50.878;8.050;2024-01-10T05:28:06;0.65;;;0.65;;
35257;SDS011;21385;50.878;8.050;2024-01-10T05:30:31;1.77;;;0.88;;
35257;SDS011;21385;50.878;8.050;2024-01-10T05:32:57;1.45;;;1.30;;
35257;SDS011;21385;50.878;8.050;2024-01-10T05:35:26;1.38;;;1.08;;
35257;SDS011;21385;50.878;8.050;2024-01-10T05:37:51;1.77;;;1.13;;
35257;SDS011;21385;50.878;8.050;2024-01-10T05:40:18;0.45;;;0.40;;
35257;SDS011;21385;50.878;8.050;2024-01-10T05:42:44;2.63;;;1.67;;
35257;SDS011;21385;50.878;8.050;2024-01-10T05:45:09;2.75;;;1.00;;
35257;SDS011;21385;50.878;8.050;2024-01-10T05:47:35;1.15;;;1.08;;
35257;SDS011;21385;50.878;8.050;2024-01-10T05:50:01;2.50;;;1.43;;
35257;SDS011;21385;50.878;8.050;2024-01-10T05:52:27;0.80;;;0.80;;
35257;SDS011;21385;50.878;8.050;2024-01-10T05:54:52;1.38;;;1.27;;
35257;SDS011;21385;50.878;8.050;2024-01-10T05:57:18;1.40;;;1.27;;
35257;SDS011;21385;50.878;8.050;2024-01-10T05:59:46;4.97;;;1.95;;
35257;SDS011;21385;50.878;8.050;2024-01-10T06:02:11;3.25;;;1.80;;
35257;SDS011;21385;50.878;8.050;2024-01-10T06:04:37;1.00;;;0.90;;
35257;SDS011;21385;50.878;8.050;2024-01-10T06:07:03;1.83;;;1.70;;
35257;SDS011;21385;50.878;8.050;2024-01-10T06:09:28;1.92;;;1.63;;
35257;SDS011;21385;50.878;8.050;2024-01-10T06:11:54;1.17;;;1.17;;
35257;SDS011;21385;50.878;8.050;2024-01-10T06:14:20;3.42;;;2.40;;
35257;SDS011;21385;50.878;8.050;2024-01-10T06:16:45;3.58;;;3.05;;
35257;SDS011;21385;50.878;8.050;2024-01-10T06:19:11;2.15;;;2.05;;
35257;SDS011;21385;50.878;8.050;2024-01-10T06:21:37;1.75;;;1.65;;
35257;SDS011;21385;50.878;8.050;2024-01-10T06:24:03;4.30;;;1.23;;
35257;SDS011;21385;50.878;8.050;2024-01-10T06:26:29;1.83;;;1.73;;
35257;SDS011;21385;50.878;8.050;2024-01-10T06:28:54;9.55;;;3.15;;
35257;SDS011;21385;50.878;8.050;2024-01-10T06:31:20;1.30;;;1.27;;
35257;SDS011;21385;50.878;8.050;2024-01-10T06:33:46;1.13;;;1.02;;
35257;SDS011;21385;50.878;8.050;2024-01-10T06:36:12;1.50;;;1.33;;
35257;SDS011;21385;50.878;8.050;2024-01-10T06:38:38;0.93;;;0.88;;
35257;SDS011;21385;50.878;8.050;2024-01-10T06:41:08;1.48;;;1.45;;
35257;SDS011;21385;50.878;8.050;2024-01-10T06:43:34;1.38;;;1.33;;
35257;SDS011;21385;50.878;8.050;2024-01-10T06:46:00;2.47;;;2.03;;
35257;SDS011;21385;50.878;8.050;2024-01-10T06:48:26;1.23;;;1.13;;
35257;SDS011;21385;50.878;8.050;2024-01-10T06:50:51;1.77;;;1.40;;
35257;SDS011;21385;50.878;8.050;2024-01-10T06:53:17;1.95;;;1.85;;
35257;SDS011;21385;50.878;8.050;2024-01-10T06:55:43;1.33;;;1.23;;
35257;SDS011;21385;50.878;8.050;2024-01-10T06:58:08;7.88;;;0.93;;
35257;SDS011;21385;50.878;8.050;2024-01-10T07:00:34;2.42;;;2.22;;
35257;SDS011;21385;50.878;8.050;2024-01-10T07:03:02;1.52;;;1.48;;
35257;SDS011;21385;50.878;8.050;2024-01-10T07:05:28;1.75;;;1.65;;
35257;SDS011;21385;50.878;8.050;2024-01-10T07:07:56;0.50;;;0.50;;
35257;SDS011;21385;50.878;8.050;2024-01-10T07:10:22;2.00;;;1.88;;
35257;SDS011;21385;50.878;8.050;2024-01-10T07:12:52;2.28;;;1.90;;
35257;SDS011;21385;50.878;8.050;2024-01-10T07:15:21;12.67;;;2.27;;
35257;SDS011;21385;50.878;8.050;2024-01-10T07:17:47;2.30;;;2.05;;
35257;SDS011;21385;50.878;8.050;2024-01-10T07:20:13;2.30;;;2.10;;
35257;SDS011;21385;50.878;8.050;2024-01-10T07:22:38;1.45;;;1.33;;
35257;SDS011;21385;50.878;8.050;2024-01-10T07:25:06;6.30;;;1.80;;
35257;SDS011;21385;50.878;8.050;2024-01-10T07:27:34;1.75;;;1.38;;
35257;SDS011;21385;50.878;8.050;2024-01-10T07:30:02;15.23;;;2.13;;
35257;SDS011;21385;50.878;8.050;2024-01-10T07:32:38;2.03;;;1.93;;
35257;SDS011;21385;50.878;8.050;2024-01-10T07:35:07;1.55;;;0.80;;
35257;SDS011;21385;50.878;8.050;2024-01-10T07:37:36;2.37;;;1.20;;
35257;SDS011;21385;50.878;8.050;2024-01-10T07:40:03;0.85;;;0.85;;
35257;SDS011;21385;50.878;8.050;2024-01-10T07:42:33;1.50;;;1.40;;
35257;SDS011;21385;50.878;8.050;2024-01-10T07:44:59;2.78;;;1.98;;
35257;SDS011;21385;50.878;8.050;2024-01-10T07:47:25;2.50;;;2.22;;
35257;SDS011;21385;50.878;8.050;2024-01-10T07:49:50;1.60;;;1.52;;
35257;SDS011;21385;50.878;8.050;2024-01-10T07:52:16;1.25;;;1.25;;
35257;SDS011;21385;50.878;8.050;2024-01-10T07:54:42;4.13;;;1.88;;
35257;SDS011;21385;50.878;8.050;2024-01-10T07:57:07;1.35;;;1.35;;
35257;SDS011;21385;50.878;8.050;2024-01-10T07:59:33;2.63;;;2.43;;
35257;SDS011;21385;50.878;8.050;2024-01-10T08:01:59;1.98;;;1.42;;
35257;SDS011;21385;50.878;8.050;2024-01-10T08:04:28;4.68;;;1.95;;
35257;SDS011;21385;50.878;8.050;2024-01-10T08:06:54;1.50;;;1.40;;
35257;SDS011;21385;50.878;8.050;2024-01-10T08:09:20;1.55;;;1.45;;
35257;SDS011;21385;50.878;8.050;2024-01-10T08:11:49;0.75;;;0.75;;
35257;SDS011;21385;50.878;8.050;2024-01-10T08:14:15;1.20;;;1.13;;
35257;SDS011;21385;50.878;8.050;2024-01-10T08:16:41;3.67;;;2.67;;
35257;SDS011;21385;50.878;8.050;2024-01-10T08:19:07;1.63;;;1.50;;
35257;SDS011;21385;50.878;8.050;2024-01-10T08:21:33;3.60;;;2.83;;
35257;SDS011;21385;50.878;8.050;2024-01-10T08:23:59;1.55;;;1.45;;
35257;SDS011;21385;50.878;8.050;2024-01-10T08:26:26;0.70;;;0.70;;
35257;SDS011;21385;50.878;8.050;2024-01-10T08:28:52;2.10;;;2.00;;
35257;SDS011;21385;50.878;8.050;2024-01-10T08:31:17;2.58;;;1.83;;
35257;SDS011;21385;50.878;8.050;2024-01-10T08:33:43;9.77;;;2.97;;
35257;SDS011;21385;50.878;8.050;2024-01-10T08:36:10;3.50;;;2.20;;
35257;SDS011;21385;50.878;8.050;2024-01-10T08:38:36;7.95;;;2.65;;
35257;SDS011;21385;50.878;8.050;2024-01-10T08:41:02;3.25;;;2.95;;
35257;SDS011;21385;50.878;8.050;2024-01-10T08:43:28;3.80;;;3.50;;
35257;SDS011;21385;50.878;8.050;2024-01-10T08:45:54;5.27;;;4.57;;
35257;SDS011;21385;50.878;8.050;2024-01-10T08:48:19;3.65;;;3.30;;
35257;SDS011;21385;50.878;8.050;2024-01-10T08:50:45;2.30;;;2.20;;
35257;SDS011;21385;50.878;8.050;2024-01-10T08:53:11;3.67;;;3.30;;
35257;SDS011;21385;50.878;8.050;2024-01-10T08:55:37;2.40;;;2.00;;
35257;SDS011;21385;50.878;8.050;2024-01-10T08:58:05;3.05;;;2.83;;
35257;SDS011;21385;50.878;8.050;2024-01-10T09:00:32;1.15;;;1.13;;
35257;SDS011;21385;50.878;8.050;2024-01-10T09:02:59;7.00;;;2.53;;
35257;SDS011;21385;50.878;8.050;2024-01-10T09:05:25;4.28;;;3.35;;
35257;SDS011;21385;50.878;8.050;2024-01-10T09:07:51;3.25;;;2.72;;
35257;SDS011;21385;50.878;8.050;2024-01-10T09:10:18;2.10;;;2.00;;
35257;SDS011;21385;50.878;8.050;2024-01-10T09:12:46;1.45;;;1.35;;
35257;SDS011;21385;50.878;8.050;2024-01-10T09:15:12;6.22;;;1.80;;
35257;SDS011;21385;50.878;8.050;2024-01-10T09:17:39;1.92;;;1.83;;
35257;SDS011;21385;50.878;8.050;2024-01-10T09:20:06;2.53;;;2.33;;
35257;SDS011;21385;50.878;8.050;2024-01-10T09:22:33;2.17;;;2.03;;
35257;SDS011;21385;50.878;8.050;2024-01-10T09:24:59;9.15;;;2.92;;
35257;SDS011;21385;50.878;8.050;2024-01-10T09:27:28;2.30;;;1.80;;
35257;SDS011;21385;50.878;8.050;2024-01-10T09:30:01;4.00;;;2.47;;
35257;SDS011;21385;50.878;8.050;2024-01-10T09:32:27;5.55;;;3.78;;
35257;SDS011;21385;50.878;8.050;2024-01-10T09:34:54;2.58;;;2.38;;
35257;SDS011;21385;50.878;8.050;2024-01-10T09:37:20;3.70;;;2.92;;
35257;SDS011;21385;50.878;8.050;2024-01-10T09:39:46;5.55;;;3.15;;
35257;SDS011;21385;50.878;8.050;2024-01-10T09:42:11;3.55;;;2.20;;
35257;SDS011;21385;50.878;8.050;2024-01-10T09:44:41;3.88;;;3.53;;
35257;SDS011;21385;50.878;8.050;2024-01-10T09:47:07;4.20;;;3.63;;
35257;SDS011;21385;50.878;8.050;2024-01-10T09:49:33;3.63;;;2.65;;
35257;SDS011;21385;50.878;8.050;2024-01-10T09:51:59;2.45;;;2.03;;
35257;SDS011;21385;50.878;8.050;2024-01-10T09:54:30;6.63;;;2.40;;
35257;SDS011;21385;50.878;8.050;2024-01-10T09:56:58;1.88;;;1.77;;
35257;SDS011;21385;50.878;8.050;2024-01-10T09:59:24;2.85;;;2.38;;
35257;SDS011;21385;50.878;8.050;2024-01-10T10:01:53;3.92;;;2.55;;
35257;SDS011;21385;50.878;8.050;2024-01-10T10:04:21;3.63;;;3.33;;
35257;SDS011;21385;50.878;8.050;2024-01-10T10:06:52;5.13;;;2.85;;
35257;SDS011;21385;50.878;8.050;2024-01-10T10:09:23;3.20;;;2.38;;
35257;SDS011;21385;50.878;8.050;2024-01-10T10:11:54;5.00;;;3.70;;
35257;SDS011;21385;50.878;8.050;2024-01-10T10:14:19;3.30;;;2.75;;
35257;SDS011;21385;50.878;8.050;2024-01-10T10:16:45;2.40;;;1.88;;
35257;SDS011;21385;50.878;8.050;2024-01-10T10:19:11;3.10;;;2.33;;
35257;SDS011;21385;50.878;8.050;2024-01-10T10:21:38;4.15;;;2.40;;
35257;SDS011;21385;50.878;8.050;2024-01-10T10:24:04;2.80;;;2.60;;
35257;SDS011;21385;50.878;8.050;2024-01-10T10:26:31;8.52;;;2.83;;
35257;SDS011;21385;50.878;8.050;2024-01-10T10:28:58;3.35;;;3.05;;
35257;SDS011;21385;50.878;8.050;2024-01-10T10:31:24;4.60;;;2.90;;
35257;SDS011;21385;50.878;8.050;2024-01-10T10:33:50;11.05;;;2.70;;
35257;SDS011;21385;50.878;8.050;2024-01-10T10:36:16;4.07;;;3.55;;
35257;SDS011;21385;50.878;8.050;2024-01-10T10:38:43;2.30;;;2.20;;
35257;SDS011;21385;50.878;8.050;2024-01-10T10:41:08;3.53;;;2.60;;
35257;SDS011;21385;50.878;8.050;2024-01-10T10:43:38;3.97;;;2.65;;
35257;SDS011;21385;50.878;8.050;2024-01-10T10:46:04;2.50;;;2.30;;
35257;SDS011;21385;50.878;8.050;2024-01-10T10:48:41;4.07;;;3.70;;
35257;SDS011;21385;50.878;8.050;2024-01-10T10:53:39;7.03;;;2.42;;
35257;SDS011;21385;50.878;8.050;2024-01-10T10:56:10;1.90;;;1.80;;
35257;SDS011;21385;50.878;8.050;2024-01-10T10:58:41;3.13;;;2.80;;
35257;SDS011;21385;50.878;8.050;2024-01-10T11:01:09;2.67;;;2.47;;
35257;SDS011;21385;50.878;8.050;2024-01-10T11:03:38;7.47;;;3.20;;
35257;SDS011;21385;50.878;8.050;2024-01-10T11:06:05;5.43;;;4.00;;
35257;SDS011;21385;50.878;8.050;2024-01-10T11:08:45;2.95;;;2.58;;
35257;SDS011;21385;50.878;8.050;2024-01-10T11:14:38;8.55;;;2.95;;
35257;SDS011;21385;50.878;8.050;2024-01-10T11:17:16;5.95;;;2.13;;
35257;SDS011;21385;50.878;8.050;2024-01-10T11:20:14;6.72;;;3.22;;
35257;SDS011;21385;50.878;8.050;2024-01-10T11:25:58;2.33;;;2.13;;
35257;SDS011;21385;50.878;8.050;2024-01-10T11:28:27;3.95;;;2.65;;
35257;SDS011;21385;50.878;8.050;2024-01-10T11:30:55;8.52;;;3.78;;
35257;SDS011;21385;50.878;8.050;2024-01-10T11:33:25;3.20;;;2.30;;
35257;SDS011;21385;50.878;8.050;2024-01-10T11:41:11;8.75;;;2.97;;
35257;SDS011;21385;50.878;8.050;2024-01-10T11:43:38;5.60;;;3.17;;
35257;SDS011;21385;50.878;8.050;2024-01-10T11:46:05;3.22;;;2.22;;
35257;SDS011;21385;50.878;8.050;2024-01-10T11:48:31;2.65;;;2.42;;
35257;SDS011;21385;50.878;8.050;2024-01-10T11:50:57;8.63;;;3.17;;
35257;SDS011;21385;50.878;8.050;2024-01-10T11:53:40;5.85;;;3.45;;
35257;SDS011;21385;50.878;8.050;2024-01-10T11:56:10;5.93;;;2.90;;
35257;SDS011;21385;50.878;8.050;2024-01-10T11:58:52;6.63;;;3.75;;
35257;SDS011;21385;50.878;8.050;2024-01-10T12:01:18;7.00;;;4.00;;
35257;SDS011;21385;50.878;8.050;2024-01-10T12:03:45;6.32;;;4.13;;
35257;SDS011;21385;50.878;8.050;2024-01-10T12:06:13;2.70;;;2.50;;
35257;SDS011;21385;50.878;8.050;2024-01-10T12:08:40;3.28;;;2.50;;
35257;SDS011;21385;50.878;8.050;2024-01-10T12:11:06;6.20;;;4.15;;
35257;SDS011;21385;50.878;8.050;2024-01-10T12:13:32;5.00;;;3.65;;
35257;SDS011;21385;50.878;8.050;2024-01-10T12:15:57;3.85;;;3.50;;
35257;SDS011;21385;50.878;8.050;2024-01-10T12:18:23;8.88;;;3.40;;
35257;SDS011;21385;50.878;8.050;2024-01-10T12:20:49;5.82;;;3.53;;
35257;SDS011;21385;50.878;8.050;2024-01-10T12:23:14;6.28;;;3.42;;
35257;SDS011;21385;50.878;8.050;2024-01-10T12:25:40;4.93;;;4.03;;
35257;SDS011;21385;50.878;8.050;2024-01-10T12:28:06;6.72;;;3.53;;
35257;SDS011;21385;50.878;8.050;2024-01-10T12:30:31;3.80;;;3.17;;
35257;SDS011;21385;50.878;8.050;2024-01-10T12:33:00;7.68;;;3.25;;
35257;SDS011;21385;50.878;8.050;2024-01-10T12:35:26;3.45;;;3.03;;
35257;SDS011;21385;50.878;8.050;2024-01-10T12:37:55;10.45;;;3.60;;
35257;SDS011;21385;50.878;8.050;2024-01-10T12:40:21;11.60;;;3.33;;
35257;SDS011;21385;50.878;8.050;2024-01-10T12:42:46;4.85;;;3.42;;
35257;SDS011;21385;50.878;8.050;2024-01-10T12:45:24;4.10;;;2.60;;
35257;SDS011;21385;50.878;8.050;2024-01-10T12:47:52;3.53;;;2.85;;
35257;SDS011;21385;50.878;8.050;2024-01-10T12:50:19;6.57;;;3.83;;
35257;SDS011;21385;50.878;8.050;2024-01-10T12:52:44;14.02;;;3.45;;
35257;SDS011;21385;50.878;8.050;2024-01-10T12:55:10;5.45;;;3.05;;
35257;SDS011;21385;50.878;8.050;2024-01-10T12:57:36;3.88;;;3.55;;
35257;SDS011;21385;50.878;8.050;2024-01-10T13:00:01;3.92;;;2.90;;
35257;SDS011;21385;50.878;8.050;2024-01-10T13:02:31;9.50;;;3.45;;
35257;SDS011;21385;50.878;8.050;2024-01-10T13:05:01;8.63;;;3.40;;
35257;SDS011;21385;50.878;8.050;2024-01-10T13:07:31;7.03;;;3.55;;
35257;SDS011;21385;50.878;8.050;2024-01-10T13:09:59;10.77;;;3.47;;
35257;SDS011;21385;50.878;8.050;2024-01-10T13:12:24;5.95;;;3.15;;
35257;SDS011;21385;50.878;8.050;2024-01-10T13:14:50;7.07;;;4.55;;
35257;SDS011;21385;50.878;8.050;2024-01-10T13:17:15;7.13;;;3.17;;
35257;SDS011;21385;50.878;8.050;2024-01-10T13:19:41;6.30;;;2.65;;
35257;SDS011;21385;50.878;8.050;2024-01-10T13:22:10;3.92;;;3.50;;
35257;SDS011;21385;50.878;8.050;2024-01-10T13:24:38;4.95;;;3.33;;
35257;SDS011;21385;50.878;8.050;2024-01-10T13:27:04;2.72;;;2.42;;
35257;SDS011;21385;50.878;8.050;2024-01-10T13:29:30;6.57;;;4.10;;
35257;SDS011;21385;50.878;8.050;2024-01-10T13:31:55;8.55;;;4.07;;
35257;SDS011;21385;50.878;8.050;2024-01-10T13:34:21;6.28;;;3.45;;
35257;SDS011;21385;50.878;8.050;2024-01-10T13:36:46;12.68;;;3.72;;
35257;SDS011;21385;50.878;8.050;2024-01-10T13:39:12;4.53;;;3.55;;
35257;SDS011;21385;50.878;8.050;2024-01-10T13:41:40;5.85;;;4.90;;
35257;SDS011;21385;50.878;8.050;2024-01-10T13:44:05;7.50;;;4.75;;
35257;SDS011;21385;50.878;8.050;2024-01-10T13:46:31;4.82;;;4.30;;
35257;SDS011;21385;50.878;8.050;2024-01-10T13:48:57;6.50;;;4.43;;
35257;SDS011;21385;50.878;8.050;2024-01-10T13:51:22;4.50;;;3.40;;
35257;SDS011;21385;50.878;8.050;2024-01-10T13:53:48;5.10;;;4.03;;
35257;SDS011;21385;50.878;8.050;2024-01-10T13:56:13;5.85;;;3.53;;
35257;SDS011;21385;50.878;8.050;2024-01-10T13:58:39;8.95;;;4.57;;
35257;SDS011;21385;50.878;8.050;2024-01-10T14:01:05;9.68;;;3.00;;
35257;SDS011;21385;50.878;8.050;2024-01-10T14:03:30;4.32;;;3.53;;
35257;SDS011;21385;50.878;8.050;2024-01-10T14:05:56;4.18;;;3.15;;
35257;SDS011;21385;50.878;8.050;2024-01-10T14:08:21;5.65;;;3.05;;
35257;SDS011;21385;50.878;8.050;2024-01-10T14:10:47;8.75;;;3.15;;
35257;SDS011;21385;50.878;8.050;2024-01-10T14:13:12;4.07;;;3.75;;
35257;SDS011;21385;50.878;8.050;2024-01-10T14:15:38;5.35;;;3.55;;
35257;SDS011;21385;50.878;8.050;2024-01-10T14:18:04;6.00;;;3.25;;
35257;SDS011;21385;50.878;8.050;2024-01-10T14:20:29;9.10;;;3.75;;
35257;SDS011;21385;50.878;8.050;2024-01-10T14:22:55;7.22;;;4.43;;
35257;SDS011;21385;50.878;8.050;2024-01-10T14:25:20;9.07;;;3.80;;
35257;SDS011;21385;50.878;8.050;2024-01-10T14:27:46;11.23;;;4.20;;
35257;SDS011;21385;50.878;8.050;2024-01-10T14:30:11;3.85;;;3.47;;
35257;SDS011;21385;50.878;8.050;2024-01-10T14:32:39;5.05;;;3.80;;
35257;SDS011;21385;50.878;8.050;2024-01-10T14:35:04;3.50;;;3.22;;
35257;SDS011;21385;50.878;8.050;2024-01-10T14:37:30;5.38;;;4.13;;
35257;SDS011;21385;50.878;8.050;2024-01-10T14:39:56;6.35;;;3.60;;
35257;SDS011;21385;50.878;8.050;2024-01-10T14:42:21;5.10;;;4.28;;
35257;SDS011;21385;50.878;8.050;2024-01-10T14:44:47;5.68;;;2.78;;
35257;SDS011;21385;50.878;8.050;2024-01-10T14:47:12;4.53;;;3.95;;
35257;SDS011;21385;50.878;8.050;2024-01-10T14:49:38;3.97;;;3.67;;
35257;SDS011;21385;50.878;8.050;2024-01-10T14:52:04;7.22;;;4.13;;
35257;SDS011;21385;50.878;8.050;2024-01-10T14:54:30;10.52;;;4.53;;
35257;SDS011;21385;50.878;8.050;2024-01-10T14:56:56;4.00;;;3.60;;
35257;SDS011;21385;50.878;8.050;2024-01-10T14:59:21;4.60;;;3.40;;